sensor_id;sensor_type;location;lat;lon;timestamp;pressure;altitude;pressure_sealevel;temperature;humidity
40490;BME280;26196;52.302;10.572;2022-10-16T00:02:56;100210.56;;;18.10;59.89
40490;BME280;26196;52.302;10.572;2022-10-16T00:06:57;100193.91;;;18.08;59.73
40490;BME280;26196;52.302;10.572;2022-10-16T00:11:09;100193.84;;;18.09;59.73
40490;BME280;26196;52.302;10.572;2022-10-16T00:15:10;100192.03;;;18.10;59.53
40490;BME280;26196;52.302;10.572;2022-10-16T00:19:11;100195.81;;;18.06;59.42
40490;BME280;26196;52.302;10.572;2022-10-16T00:23:12;100197.53;;;18.07;59.28
40490;BME280;26196;52.302;10.572;2022-10-16T00:27:13;100203.66;;;18.07;59.43
40490;BME280;26196;52.302;10.572;2022-10-16T00:31:14;100199.41;;;18.05;59.29
40490;BME280;26196;52.302;10.572;2022-10-16T00:35:14;100204.91;;;18.02;59.20
40490;BME280;26196;52.302;10.572;2022-10-16T00:39:15;100213.59;;;18.04;58.81
40490;BME280;26196;52.302;10.572;2022-10-16T00:43:39;100217.97;;;18.05;58.82
40490;BME280;26196;52.302;10.572;2022-10-16T00:47:42;100211.91;;;18.03;58.90
40490;BME280;26196;52.302;10.572;2022-10-16T00:51:47;100227.03;;;18.01;58.70
40490;BME280;26196;52.302;10.572;2022-10-16T00:55:48;100236.78;;;18.00;58.67
40490;BME280;26196;52.302;10.572;2022-10-16T00:59:48;100223.72;;;17.97;58.34
40490;BME280;26196;52.302;10.572;2022-10-16T01:03:49;100225.63;;;17.95;58.54
40490;BME280;26196;52.302;10.572;2022-10-16T01:07:56;100230.84;;;17.97;58.67
40490;BME280;26196;52.302;10.572;2022-10-16T01:16:22;100232.59;;;17.96;58.49
40490;BME280;26196;52.302;10.572;2022-10-16T01:24:35;100237.25;;;17.92;58.13
40490;BME280;26196;52.302;10.572;2022-10-16T01:29:15;100238.94;;;17.93;58.29
40490;BME280;26196;52.302;10.572;2022-10-16T01:33:21;100236.28;;;17.93;58.14
40490;BME280;26196;52.302;10.572;2022-10-16T01:37:35;100231.13;;;17.92;58.24
40490;BME280;26196;52.302;10.572;2022-10-16T01:41:41;100232.91;;;17.91;58.09
40490;BME280;26196;52.302;10.572;2022-10-16T01:45:44;100243.50;;;17.91;58.13
40490;BME280;26196;52.302;10.572;2022-10-16T01:49:46;100243.50;;;17.91;58.24
40490;BME280;26196;52.302;10.572;2022-10-16T01:53:52;100242.75;;;17.89;57.75
40490;BME280;26196;52.302;10.572;2022-10-16T01:57:54;100251.53;;;17.90;57.65
40490;BME280;26196;52.302;10.572;2022-10-16T02:01:59;100243.69;;;17.88;57.90
40490;BME280;26196;52.302;10.572;2022-10-16T02:06:00;100255.41;;;17.84;57.63
40490;BME280;26196;52.302;10.572;2022-10-16T02:10:01;100260.72;;;17.84;57.76
40490;BME280;26196;52.302;10.572;2022-10-16T02:14:04;100258.25;;;17.81;57.59
40490;BME280;26196;52.302;10.572;2022-10-16T02:18:06;100266.84;;;17.85;57.91
40490;BME280;26196;52.302;10.572;2022-10-16T02:22:10;100262.50;;;17.84;57.73
40490;BME280;26196;52.302;10.572;2022-10-16T02:26:15;100274.03;;;17.83;57.58
40490;BME280;26196;52.302;10.572;2022-10-16T02:34:24;100283.78;;;17.82;57.70
40490;BME280;26196;52.302;10.572;2022-10-16T02:38:26;100287.38;;;17.81;57.31
40490;BME280;26196;52.302;10.572;2022-10-16T02:42:33;100292.16;;;17.75;57.24
40490;BME280;26196;52.302;10.572;2022-10-16T02:46:33;100292.66;;;17.81;57.26
40490;BME280;26196;52.302;10.572;2022-10-16T02:50:34;100290.09;;;17.80;57.43
40490;BME280;26196;52.302;10.572;2022-10-16T02:54:34;100286.66;;;17.78;57.34
40490;BME280;26196;52.302;10.572;2022-10-16T02:58:35;100286.66;;;17.78;57.16
40490;BME280;26196;52.302;10.572;2022-10-16T03:02:35;100293.75;;;17.77;57.49
40490;BME280;26196;52.302;10.572;2022-10-16T03:06:36;100295.56;;;17.77;56.94
40490;BME280;26196;52.302;10.572;2022-10-16T03:10:36;100299.16;;;17.76;57.42
40490;BME280;26196;52.302;10.572;2022-10-16T03:14:36;100294.78;;;17.75;57.24
40490;BME280;26196;52.302;10.572;2022-10-16T03:18:37;100281.66;;;17.73;56.97
40490;BME280;26196;52.302;10.572;2022-10-16T03:22:37;100283.44;;;17.72;57.34
40490;BME280;26196;52.302;10.572;2022-10-16T03:26:38;100282.59;;;17.72;57.28
40490;BME280;26196;52.302;10.572;2022-10-16T03:30:38;100274.06;;;17.67;57.23
40490;BME280;26196;52.302;10.572;2022-10-16T03:34:39;100269.56;;;17.69;57.33
40490;BME280;26196;52.302;10.572;2022-10-16T03:38:40;100274.00;;;17.68;57.13
40490;BME280;26196;52.302;10.572;2022-10-16T03:42:42;100280.13;;;17.69;57.45
40490;BME280;26196;52.302;10.572;2022-10-16T03:46:43;100283.75;;;17.68;57.44
40490;BME280;26196;52.302;10.572;2022-10-16T03:50:43;100283.81;;;17.66;56.92
40490;BME280;26196;52.302;10.572;2022-10-16T03:54:44;100277.56;;;17.67;57.20
40490;BME280;26196;52.302;10.572;2022-10-16T03:58:44;100297.06;;;17.66;57.26
40490;BME280;26196;52.302;10.572;2022-10-16T04:02:45;100297.16;;;17.65;57.12
40490;BME280;26196;52.302;10.572;2022-10-16T04:06:45;100301.59;;;17.64;57.05
40490;BME280;26196;52.302;10.572;2022-10-16T04:10:46;100288.66;;;17.60;56.64
40490;BME280;26196;52.302;10.572;2022-10-16T04:14:46;100293.06;;;17.59;56.96
40490;BME280;26196;52.302;10.572;2022-10-16T04:18:46;100293.94;;;17.60;56.59
40490;BME280;26196;52.302;10.572;2022-10-16T04:22:47;100293.94;;;17.60;56.81
40490;BME280;26196;52.302;10.572;2022-10-16T04:26:47;100296.75;;;17.57;56.56
40490;BME280;26196;52.302;10.572;2022-10-16T04:30:48;100293.44;;;17.53;56.98
40490;BME280;26196;52.302;10.572;2022-10-16T04:34:48;100308.28;;;17.56;56.39
40490;BME280;26196;52.302;10.572;2022-10-16T04:38:49;100316.31;;;17.54;56.90
40490;BME280;26196;52.302;10.572;2022-10-16T04:42:49;100315.47;;;17.54;56.48
40490;BME280;26196;52.302;10.572;2022-10-16T04:46:50;100316.50;;;17.51;56.23
40490;BME280;26196;52.302;10.572;2022-10-16T04:50:51;100314.69;;;17.52;56.41
40490;BME280;26196;52.302;10.572;2022-10-16T04:54:51;100310.34;;;17.50;56.47
40490;BME280;26196;52.302;10.572;2022-10-16T04:58:52;100316.59;;;17.49;56.43
40490;BME280;26196;52.302;10.572;2022-10-16T05:02:52;100313.94;;;17.49;56.26
40490;BME280;26196;52.302;10.572;2022-10-16T05:06:53;100297.31;;;17.47;56.41
40490;BME280;26196;52.302;10.572;2022-10-16T05:10:53;100314.97;;;17.47;56.17
40490;BME280;26196;52.302;10.572;2022-10-16T05:14:54;100327.44;;;17.45;56.10
40490;BME280;26196;52.302;10.572;2022-10-16T05:18:58;100336.31;;;17.44;56.02
40490;BME280;26196;52.302;10.572;2022-10-16T05:22:59;100314.34;;;17.27;56.24
40490;BME280;26196;52.302;10.572;2022-10-16T05:26:59;100351.34;;;17.43;55.93
40490;BME280;26196;52.302;10.572;2022-10-16T05:31:07;100342.63;;;17.41;55.92
40490;BME280;26196;52.302;10.572;2022-10-16T05:35:08;100348.81;;;17.42;55.78
40490;BME280;26196;52.302;10.572;2022-10-16T05:39:08;100334.81;;;17.40;56.21
40490;BME280;26196;52.302;10.572;2022-10-16T05:43:09;100346.22;;;17.40;56.24
40490;BME280;26196;52.302;10.572;2022-10-16T05:47:09;100343.94;;;17.34;56.16
40490;BME280;26196;52.302;10.572;2022-10-16T05:51:12;100362.28;;;17.37;56.00
40490;BME280;26196;52.302;10.572;2022-10-16T05:55:13;100366.03;;;17.33;56.04
40490;BME280;26196;52.302;10.572;2022-10-16T05:59:13;100368.59;;;17.35;55.82
40490;BME280;26196;52.302;10.572;2022-10-16T06:03:14;100375.78;;;17.33;55.74
40490;BME280;26196;52.302;10.572;2022-10-16T06:07:14;100393.38;;;17.34;55.74
40490;BME280;26196;52.302;10.572;2022-10-16T06:11:17;100392.50;;;17.33;56.11
40490;BME280;26196;52.302;10.572;2022-10-16T06:15:18;100394.41;;;17.31;56.13
40490;BME280;26196;52.302;10.572;2022-10-16T06:19:19;100401.56;;;17.29;56.10
40490;BME280;26196;52.302;10.572;2022-10-16T06:23:19;100413.06;;;17.28;55.74
40490;BME280;26196;52.302;10.572;2022-10-16T06:27:20;100409.56;;;17.27;55.82
40490;BME280;26196;52.302;10.572;2022-10-16T06:31:20;100399.00;;;17.27;55.94
40490;BME280;26196;52.302;10.572;2022-10-16T06:35:21;100397.19;;;17.28;55.65
40490;BME280;26196;52.302;10.572;2022-10-16T06:39:22;100396.69;;;17.21;55.56
40490;BME280;26196;52.302;10.572;2022-10-16T06:43:23;100422.91;;;17.26;55.53
40490;BME280;26196;52.302;10.572;2022-10-16T06:47:23;100427.25;;;17.27;55.95
40490;BME280;26196;52.302;10.572;2022-10-16T06:51:24;100424.53;;;17.28;55.64
40490;BME280;26196;52.302;10.572;2022-10-16T06:55:25;100433.31;;;17.29;55.63
40490;BME280;26196;52.302;10.572;2022-10-16T06:59:25;100426.22;;;17.30;55.88
40490;BME280;26196;52.302;10.572;2022-10-16T07:03:26;100449.34;;;17.26;55.87
40490;BME280;26196;52.302;10.572;2022-10-16T07:07:26;100450.03;;;17.30;55.88
40490;BME280;26196;52.302;10.572;2022-10-16T07:11:27;100448.41;;;17.27;56.08
40490;BME280;26196;52.302;10.572;2022-10-16T07:15:27;100460.78;;;17.26;55.89
40490;BME280;26196;52.302;10.572;2022-10-16T07:19:28;100462.41;;;17.29;56.18
40490;BME280;26196;52.302;10.572;2022-10-16T07:23:29;100469.50;;;17.28;56.32
40490;BME280;26196;52.302;10.572;2022-10-16T07:27:29;100466.91;;;17.27;56.37
40490;BME280;26196;52.302;10.572;2022-10-16T07:31:31;100463.31;;;17.28;56.51
40490;BME280;26196;52.302;10.572;2022-10-16T07:35:32;100489.72;;;17.30;56.53
40490;BME280;26196;52.302;10.572;2022-10-16T07:39:32;100491.50;;;17.29;56.95
40490;BME280;26196;52.302;10.572;2022-10-16T07:43:33;100489.72;;;17.30;56.94
40490;BME280;26196;52.302;10.572;2022-10-16T07:47:34;100493.19;;;17.30;56.83
40490;BME280;26196;52.302;10.572;2022-10-16T07:51:34;100498.50;;;17.30;57.36
40490;BME280;26196;52.302;10.572;2022-10-16T07:55:35;100492.34;;;17.30;57.42
40490;BME280;26196;52.302;10.572;2022-10-16T07:59:35;100500.34;;;17.28;57.57
40490;BME280;26196;52.302;10.572;2022-10-16T08:03:36;100496.78;;;17.29;57.38
40490;BME280;26196;52.302;10.572;2022-10-16T08:07:37;100506.34;;;17.32;57.58
40490;BME280;26196;52.302;10.572;2022-10-16T08:11:37;100517.78;;;17.32;57.75
40490;BME280;26196;52.302;10.572;2022-10-16T08:15:37;100528.28;;;17.34;57.82
40490;BME280;26196;52.302;10.572;2022-10-16T08:19:38;100534.59;;;17.31;57.63
40490;BME280;26196;52.302;10.572;2022-10-16T08:23:39;100539.38;;;17.40;57.82
40490;BME280;26196;52.302;10.572;2022-10-16T08:27:39;100539.44;;;17.39;58.02
40490;BME280;26196;52.302;10.572;2022-10-16T08:31:39;100547.31;;;17.40;57.94
40490;BME280;26196;52.302;10.572;2022-10-16T08:35:40;100545.50;;;17.41;57.97
40490;BME280;26196;52.302;10.572;2022-10-16T08:39:40;100556.88;;;17.43;58.65
40490;BME280;26196;52.302;10.572;2022-10-16T08:43:56;100554.16;;;17.44;58.22
40490;BME280;26196;52.302;10.572;2022-10-16T08:49:03;100562.84;;;17.46;58.19
40490;BME280;26196;52.302;10.572;2022-10-16T08:52:34;100556.53;;;17.49;58.62
40490;BME280;26196;52.302;10.572;2022-10-16T08:56:36;100554.84;;;17.48;58.69
40490;BME280;26196;52.302;10.572;2022-10-16T09:00:37;100560.13;;;17.48;59.08
40490;BME280;26196;52.302;10.572;2022-10-16T09:21:41;100588.13;;;17.52;59.41
40490;BME280;26196;52.302;10.572;2022-10-16T09:25:46;100585.50;;;17.52;59.02
40490;BME280;26196;52.302;10.572;2022-10-16T09:29:48;100582.84;;;17.52;59.56
40490;BME280;26196;52.302;10.572;2022-10-16T09:33:53;100595.97;;;17.54;59.10
40490;BME280;26196;52.302;10.572;2022-10-16T09:37:55;100597.72;;;17.55;59.13
40490;BME280;26196;52.302;10.572;2022-10-16T09:41:56;100584.63;;;17.52;59.41
40490;BME280;26196;52.302;10.572;2022-10-16T09:46:06;100596.69;;;17.57;59.62
40490;BME280;26196;52.302;10.572;2022-10-16T09:50:22;100603.69;;;17.58;59.73
40490;BME280;26196;52.302;10.572;2022-10-16T09:54:23;100614.25;;;17.58;59.19
40490;BME280;26196;52.302;10.572;2022-10-16T09:58:24;100620.41;;;17.59;59.65
40490;BME280;26196;52.302;10.572;2022-10-16T10:02:35;100629.06;;;17.62;59.59
40490;BME280;26196;52.302;10.572;2022-10-16T10:06:56;100627.25;;;17.63;59.64
40490;BME280;26196;52.302;10.572;2022-10-16T10:10:57;100637.84;;;17.63;60.08
40490;BME280;26196;52.302;10.572;2022-10-16T10:15:04;100626.31;;;17.64;59.89
40490;BME280;26196;52.302;10.572;2022-10-16T10:19:22;100634.25;;;17.64;59.85
40490;BME280;26196;52.302;10.572;2022-10-16T10:23:25;100647.31;;;17.67;59.86
40490;BME280;26196;52.302;10.572;2022-10-16T10:27:35;100647.22;;;17.68;60.20
40490;BME280;26196;52.302;10.572;2022-10-16T10:31:50;100652.53;;;17.68;59.64
40490;BME280;26196;52.302;10.572;2022-10-16T10:35:59;100658.50;;;17.72;59.51
40490;BME280;26196;52.302;10.572;2022-10-16T10:52:42;100656.47;;;17.77;59.21
40490;BME280;26196;52.302;10.572;2022-10-16T11:01:14;100665.97;;;17.81;59.04
40490;BME280;26196;52.302;10.572;2022-10-16T11:05:44;100674.78;;;17.82;59.24
40490;BME280;26196;52.302;10.572;2022-10-16T11:09:57;100677.41;;;17.82;59.58
40490;BME280;26196;52.302;10.572;2022-10-16T11:18:21;100680.75;;;17.85;59.01
40490;BME280;26196;52.302;10.572;2022-10-16T11:22:32;100683.50;;;17.84;61.00
40490;BME280;26196;52.302;10.572;2022-10-16T11:26:35;100685.19;;;17.85;59.57
40490;BME280;26196;52.302;10.572;2022-10-16T11:30:57;100694.59;;;17.90;60.70
40490;BME280;26196;52.302;10.572;2022-10-16T11:35:10;100690.19;;;17.91;59.83
40490;BME280;26196;52.302;10.572;2022-10-16T11:39:21;100702.38;;;17.93;61.05
40490;BME280;26196;52.302;10.572;2022-10-16T11:43:39;100710.31;;;17.93;61.00
40490;BME280;26196;52.302;10.572;2022-10-16T11:47:48;100707.66;;;17.93;59.89
40490;BME280;26196;52.302;10.572;2022-10-16T11:56:04;100704.88;;;17.97;60.06
40490;BME280;26196;52.302;10.572;2022-10-16T12:04:30;100704.75;;;17.98;60.39
40490;BME280;26196;52.302;10.572;2022-10-16T12:08:35;100703.91;;;17.98;59.63
40490;BME280;26196;52.302;10.572;2022-10-16T12:16:59;100709.88;;;18.01;60.47
40490;BME280;26196;52.302;10.572;2022-10-16T12:21:00;100712.63;;;18.00;59.70
40490;BME280;26196;52.302;10.572;2022-10-16T12:25:40;100721.25;;;18.03;59.89
40490;BME280;26196;52.302;10.572;2022-10-16T12:29:46;100717.69;;;18.04;59.88
40490;BME280;26196;52.302;10.572;2022-10-16T12:33:56;100718.53;;;18.05;59.96
40490;BME280;26196;52.302;10.572;2022-10-16T12:38:28;100715.78;;;18.06;60.24
40490;BME280;26196;52.302;10.572;2022-10-16T12:42:32;100721.00;;;18.08;59.72
40490;BME280;26196;52.302;10.572;2022-10-16T12:46:37;100724.44;;;18.10;60.67
40490;BME280;26196;52.302;10.572;2022-10-16T12:50:39;100726.25;;;18.09;60.66
40490;BME280;26196;52.302;10.572;2022-10-16T12:54:41;100723.84;;;18.05;60.78
40490;BME280;26196;52.302;10.572;2022-10-16T13:28:05;100756.84;;;18.15;60.35
40490;BME280;26196;52.302;10.572;2022-10-16T13:32:09;100772.56;;;18.18;60.47
40490;BME280;26196;52.302;10.572;2022-10-16T13:36:26;100777.00;;;18.18;60.38
40490;BME280;26196;52.302;10.572;2022-10-16T13:40:27;100777.78;;;18.20;60.46
40490;BME280;26196;52.302;10.572;2022-10-16T13:44:32;100779.66;;;18.18;60.19
40490;BME280;26196;52.302;10.572;2022-10-16T13:48:35;100774.25;;;18.19;60.46
40490;BME280;26196;52.302;10.572;2022-10-16T13:52:36;100778.47;;;18.23;60.19
40490;BME280;26196;52.302;10.572;2022-10-16T13:56:39;100781.09;;;18.23;59.79
40490;BME280;26196;52.302;10.572;2022-10-16T14:00:55;100787.25;;;18.24;60.15
40490;BME280;26196;52.302;10.572;2022-10-16T14:04:57;100793.34;;;18.26;59.89
40490;BME280;26196;52.302;10.572;2022-10-16T14:09:24;100798.53;;;18.27;60.04
40490;BME280;26196;52.302;10.572;2022-10-16T14:13:59;100797.69;;;18.27;60.16
40490;BME280;26196;52.302;10.572;2022-10-16T14:18:01;100803.69;;;18.30;59.68
40490;BME280;26196;52.302;10.572;2022-10-16T14:22:28;100798.38;;;18.30;59.83
40490;BME280;26196;52.302;10.572;2022-10-16T14:26:41;100797.38;;;18.33;59.56
40490;BME280;26196;52.302;10.572;2022-10-16T14:31:01;100800.16;;;18.30;59.44
40490;BME280;26196;52.302;10.572;2022-10-16T14:35:03;100809.66;;;18.34;59.64
40490;BME280;26196;52.302;10.572;2022-10-16T14:39:22;100814.13;;;18.33;59.39
40490;BME280;26196;52.302;10.572;2022-10-16T14:43:32;100814.97;;;18.34;58.94
40490;BME280;26196;52.302;10.572;2022-10-16T14:47:35;100805.22;;;18.34;58.54
40490;BME280;26196;52.302;10.572;2022-10-16T14:51:38;100822.75;;;18.37;58.55
40490;BME280;26196;52.302;10.572;2022-10-16T14:55:42;100825.41;;;18.37;58.31
40490;BME280;26196;52.302;10.572;2022-10-16T14:59:43;100831.41;;;18.41;58.27
40490;BME280;26196;52.302;10.572;2022-10-16T15:03:45;100820.94;;;18.37;58.32
40490;BME280;26196;52.302;10.572;2022-10-16T15:07:46;100840.97;;;18.43;58.09
40490;BME280;26196;52.302;10.572;2022-10-16T15:11:47;100846.19;;;18.45;58.29
40490;BME280;26196;52.302;10.572;2022-10-16T15:15:47;100844.31;;;18.47;57.85
40490;BME280;26196;52.302;10.572;2022-10-16T15:19:49;100846.00;;;18.48;58.23
40490;BME280;26196;52.302;10.572;2022-10-16T15:23:51;100846.78;;;18.50;58.21
40490;BME280;26196;52.302;10.572;2022-10-16T15:27:52;100844.13;;;18.50;57.60
40490;BME280;26196;52.302;10.572;2022-10-16T15:31:52;100857.38;;;18.50;58.05
40490;BME280;26196;52.302;10.572;2022-10-16T15:35:54;100858.94;;;18.54;58.16
40490;BME280;26196;52.302;10.572;2022-10-16T15:39:55;100851.84;;;18.54;58.06
40490;BME280;26196;52.302;10.572;2022-10-16T15:43:55;100864.84;;;18.59;58.10
40490;BME280;26196;52.302;10.572;2022-10-16T15:47:56;100861.41;;;18.57;58.22
40490;BME280;26196;52.302;10.572;2022-10-16T15:51:57;100871.50;;;18.66;58.55
40490;BME280;26196;52.302;10.572;2022-10-16T15:55:57;100865.28;;;18.67;58.15
40490;BME280;26196;52.302;10.572;2022-10-16T15:59:58;100871.25;;;18.71;57.93
40490;BME280;26196;52.302;10.572;2022-10-16T16:03:59;100875.53;;;18.73;57.66
40490;BME280;26196;52.302;10.572;2022-10-16T16:07:59;100877.34;;;18.73;57.26
40490;BME280;26196;52.302;10.572;2022-10-16T16:12:00;100891.31;;;18.76;57.18
40490;BME280;26196;52.302;10.572;2022-10-16T16:16:01;100893.19;;;18.74;57.73
40490;BME280;26196;52.302;10.572;2022-10-16T16:20:06;100899.34;;;18.75;56.75
40490;BME280;26196;52.302;10.572;2022-10-16T16:24:07;100892.28;;;18.74;56.88
40490;BME280;26196;52.302;10.572;2022-10-16T16:28:08;100893.31;;;18.71;56.50
40490;BME280;26196;52.302;10.572;2022-10-16T16:32:10;100905.66;;;18.72;56.13
40490;BME280;26196;52.302;10.572;2022-10-16T16:36:11;100908.38;;;18.71;55.80
40490;BME280;26196;52.302;10.572;2022-10-16T16:40:12;100917.97;;;18.73;55.33
40490;BME280;26196;52.302;10.572;2022-10-16T16:44:13;100927.03;;;18.69;55.52
40490;BME280;26196;52.302;10.572;2022-10-16T16:48:14;100912.47;;;18.61;55.18
40490;BME280;26196;52.302;10.572;2022-10-16T16:52:16;100924.28;;;18.71;55.54
40490;BME280;26196;52.302;10.572;2022-10-16T16:56:18;100930.22;;;18.76;56.04
40490;BME280;26196;52.302;10.572;2022-10-16T17:00:19;100936.13;;;18.81;56.47
40490;BME280;26196;52.302;10.572;2022-10-16T17:04:20;100940.41;;;18.84;56.25
40490;BME280;26196;52.302;10.572;2022-10-16T17:08:20;100945.72;;;18.84;56.30
40490;BME280;26196;52.302;10.572;2022-10-16T17:12:21;100955.56;;;18.82;55.87
40490;BME280;26196;52.302;10.572;2022-10-16T17:16:30;100954.78;;;18.79;56.07
40490;BME280;26196;52.302;10.572;2022-10-16T17:20:31;100977.56;;;18.84;55.92
40490;BME280;26196;52.302;10.572;2022-10-16T17:24:31;100968.63;;;18.85;55.65
40490;BME280;26196;52.302;10.572;2022-10-16T17:28:32;100958.22;;;18.82;55.34
40490;BME280;26196;52.302;10.572;2022-10-16T17:32:33;100969.00;;;18.78;55.08
40490;BME280;26196;52.302;10.572;2022-10-16T17:36:36;100968.81;;;18.82;55.22
40490;BME280;26196;52.302;10.572;2022-10-16T17:40:37;100967.00;;;18.82;54.97
40490;BME280;26196;52.302;10.572;2022-10-16T17:44:38;100966.09;;;18.83;55.13
40490;BME280;26196;52.302;10.572;2022-10-16T17:48:44;100972.25;;;18.84;55.83
40490;BME280;26196;52.302;10.572;2022-10-16T17:52:44;100982.94;;;18.82;55.88
40490;BME280;26196;52.302;10.572;2022-10-16T17:56:45;100993.63;;;18.80;55.92
40490;BME280;26196;52.302;10.572;2022-10-16T18:00:47;100994.31;;;18.84;56.86
40490;BME280;26196;52.302;10.572;2022-10-16T18:04:49;101016.38;;;18.85;56.53
40490;BME280;26196;52.302;10.572;2022-10-16T18:08:53;101007.69;;;18.83;56.51
40490;BME280;26196;52.302;10.572;2022-10-16T18:12:54;101007.69;;;18.83;56.05
40490;BME280;26196;52.302;10.572;2022-10-16T18:16:56;101010.34;;;18.83;55.80
40490;BME280;26196;52.302;10.572;2022-10-16T18:21:02;101009.38;;;18.84;55.92
40490;BME280;26196;52.302;10.572;2022-10-16T18:25:04;101008.44;;;18.85;55.87
40490;BME280;26196;52.302;10.572;2022-10-16T18:29:05;101014.50;;;18.87;56.16
40490;BME280;26196;52.302;10.572;2022-10-16T18:33:06;101034.81;;;18.88;55.93
40490;BME280;26196;52.302;10.572;2022-10-16T18:37:07;101022.56;;;18.85;55.21
40490;BME280;26196;52.302;10.572;2022-10-16T18:41:07;101028.72;;;18.86;54.69
40490;BME280;26196;52.302;10.572;2022-10-16T18:45:08;101030.59;;;18.84;55.17
40490;BME280;26196;52.302;10.572;2022-10-16T18:49:08;101034.25;;;18.81;55.12
40490;BME280;26196;52.302;10.572;2022-10-16T18:53:09;101046.50;;;18.84;55.45
40490;BME280;26196;52.302;10.572;2022-10-16T18:57:09;101042.91;;;18.85;55.65
40490;BME280;26196;52.302;10.572;2022-10-16T19:01:12;101036.84;;;18.83;55.91
40490;BME280;26196;52.302;10.572;2022-10-16T19:05:13;101043.84;;;18.84;55.97
40490;BME280;26196;52.302;10.572;2022-10-16T19:09:17;101029.56;;;18.86;55.95
40490;BME280;26196;52.302;10.572;2022-10-16T19:13:18;101033.06;;;18.87;55.69
40490;BME280;26196;52.302;10.572;2022-10-16T19:17:19;101048.22;;;18.85;55.91
40490;BME280;26196;52.302;10.572;2022-10-16T19:21:20;101049.00;;;18.87;55.77
40490;BME280;26196;52.302;10.572;2022-10-16T19:25:22;101053.50;;;18.85;55.95
40490;BME280;26196;52.302;10.572;2022-10-16T19:29:23;101052.59;;;18.86;55.76
40490;BME280;26196;52.302;10.572;2022-10-16T19:33:23;101052.59;;;18.86;55.76
40490;BME280;26196;52.302;10.572;2022-10-16T19:37:24;101057.97;;;18.84;55.87
40490;BME280;26196;52.302;10.572;2022-10-16T19:41:27;101067.72;;;18.84;55.65
40490;BME280;26196;52.302;10.572;2022-10-16T19:45:28;101062.41;;;18.84;55.57
40490;BME280;26196;52.302;10.572;2022-10-16T19:49:28;101048.84;;;18.72;55.27
40490;BME280;26196;52.302;10.572;2022-10-16T19:53:29;101068.69;;;18.83;55.23
40490;BME280;26196;52.302;10.572;2022-10-16T19:57:34;101069.53;;;18.83;55.19
40490;BME280;26196;52.302;10.572;2022-10-16T20:01:35;101066.03;;;18.83;55.16
40490;BME280;26196;52.302;10.572;2022-10-16T20:05:36;101066.16;;;18.79;54.61
40490;BME280;26196;52.302;10.572;2022-10-16T20:09:36;101075.06;;;18.78;54.72
40490;BME280;26196;52.302;10.572;2022-10-16T20:13:37;101088.25;;;18.80;54.83
40490;BME280;26196;52.302;10.572;2022-10-16T20:17:38;101094.47;;;18.79;54.57
40490;BME280;26196;52.302;10.572;2022-10-16T20:21:39;101097.38;;;18.74;54.65
40490;BME280;26196;52.302;10.572;2022-10-16T20:25:41;101096.28;;;18.78;54.51
40490;BME280;26196;52.302;10.572;2022-10-16T20:29:41;101109.59;;;18.77;54.48
40490;BME280;26196;52.302;10.572;2022-10-16T20:33:43;101109.72;;;18.75;54.52
40490;BME280;26196;52.302;10.572;2022-10-16T20:37:43;101103.56;;;18.75;54.44
40490;BME280;26196;52.302;10.572;2022-10-16T20:41:48;101108.91;;;18.73;54.31
40490;BME280;26196;52.302;10.572;2022-10-16T20:45:58;101106.34;;;18.72;54.30
40490;BME280;26196;52.302;10.572;2022-10-16T20:49:59;101110.69;;;18.73;54.07
40490;BME280;26196;52.302;10.572;2022-10-16T20:54:02;101114.28;;;18.72;54.13
40490;BME280;26196;52.302;10.572;2022-10-16T20:58:04;101129.31;;;18.71;54.01
40490;BME280;26196;52.302;10.572;2022-10-16T21:02:04;101125.81;;;18.71;54.04
40490;BME280;26196;52.302;10.572;2022-10-16T21:06:08;101122.38;;;18.69;53.79
40490;BME280;26196;52.302;10.572;2022-10-16T21:10:09;101114.53;;;18.67;54.04
40490;BME280;26196;52.302;10.572;2022-10-16T21:14:10;101104.78;;;18.68;54.18
40490;BME280;26196;52.302;10.572;2022-10-16T21:18:10;101100.53;;;18.64;54.04
40490;BME280;26196;52.302;10.572;2022-10-16T21:22:11;101127.00;;;18.65;54.17
40490;BME280;26196;52.302;10.572;2022-10-16T21:26:12;101119.25;;;18.61;54.20
40490;BME280;26196;52.302;10.572;2022-10-16T21:30:12;101128.84;;;18.63;53.97
40490;BME280;26196;52.302;10.572;2022-10-16T21:34:13;101132.63;;;18.59;54.11
40490;BME280;26196;52.302;10.572;2022-10-16T21:38:13;101120.28;;;18.58;54.01
40490;BME280;26196;52.302;10.572;2022-10-16T21:42:14;101125.53;;;18.59;53.82
40490;BME280;26196;52.302;10.572;2022-10-16T21:46:16;101117.56;;;18.59;54.06
40490;BME280;26196;52.302;10.572;2022-10-16T21:50:17;101116.72;;;18.59;53.88
40490;BME280;26196;52.302;10.572;2022-10-16T21:54:20;101121.22;;;18.57;54.07
40490;BME280;26196;52.302;10.572;2022-10-16T21:58:20;101122.16;;;18.56;53.95
40490;BME280;26196;52.302;10.572;2022-10-16T22:02:21;101115.13;;;18.55;54.05
40490;BME280;26196;52.302;10.572;2022-10-16T22:06:24;101132.75;;;18.56;54.10
40490;BME280;26196;52.302;10.572;2022-10-16T22:10:26;101147.81;;;18.55;53.84
40490;BME280;26196;52.302;10.572;2022-10-16T22:14:26;101135.66;;;18.51;54.18
40490;BME280;26196;52.302;10.572;2022-10-16T22:18:27;101143.44;;;18.54;53.99
40490;BME280;26196;52.302;10.572;2022-10-16T22:22:28;101126.75;;;18.52;54.27
40490;BME280;26196;52.302;10.572;2022-10-16T22:26:28;101127.69;;;18.51;54.24
40490;BME280;26196;52.302;10.572;2022-10-16T22:30:29;101117.16;;;18.50;54.19